METAR Data
IDs: Format: Raw Decoded Include TAF

Data at: 0223 UTC 06 Dec 2020

Region: TOP
KATL 060152Z 27005KT 10SM FEW250 07/02 A3007 RMK AO2 SLP186 T00720022

KBOS 060154Z 29024G31KT 6SM -SNRA BR FEW008 BKN014 OVC020 02/01 A2936 RMK AO2 PK WND 29037/0139 RAB10 SLP941 P0002 T00170006 $

KBWI 060154Z 32010G18KT 10SM OVC055 07/M05 A2993 RMK AO2 SLP134 T00671050

KCLE 060151Z 33010KT 10SM OVC029 01/M04 A3008 RMK AO2 SLP208 T00061044

KCLT 060152Z 34004KT 10SM CLR 05/M01 A3004 RMK AO2 SLP173 T00501011

KCVG 060152Z 36006KT 10SM CLR 00/M04 A3010 RMK AO2 SLP200 T00001039

KDCA 060152Z 32011G23KT 10SM OVC060 07/M03 A2997 RMK AO2 SLP149 T00721028

KDEN 060153Z 19008KT 10SM CLR 04/M09 A3029 RMK AO2 SLP265 T00391089

KDFW 060153Z 30007KT 10SM SCT075 OVC090 14/M02 A3014 RMK AO2 SLP207 T01441022

KDTW 060153Z 33005KT 10SM BKN025 M01/M07 A3013 RMK AO2 SLP210 T10061067

KEWR 060151Z 29018G25KT 10SM FEW050 04/M03 A2977 RMK AO2 PK WND 30028/0121 SLP080 T00441033

KFLL 060153Z 20003KT 10SM FEW045 25/19 A3001 RMK AO2 SLP162 T02500194 PNO $

KIAD 060152Z 32011KT 10SM OVC046 06/M03 A2996 RMK AO2 PK WND 31027/0053 SLP147 T00561028

KIAH 060153Z 00000KT 10SM BKN075 OVC120 12/05 A3021 RMK AO2 SLP231 T01170050

KJFK 060151Z COR 30017KT 10SM FEW050 04/M03 A2976 RMK AO2 SLP077 T00441033 $

KLAS 060156Z 22004KT 10SM CLR 12/M15 A3029 RMK AO2 SLP259 T01221150 $

KLAX 060153Z 26007KT 10SM FEW250 14/11 A3022 RMK AO2 SLP232 T01390106

KLGA 060151Z 30017G28KT 10SM FEW050 06/M03 A2974 RMK AO2 PK WND 30029/0104 SLP071 T00561028 $

KMCO 060153Z 36004KT 10SM FEW250 13/08 A3008 RMK AO2 SLP184 T01330083

KMDW 060153Z 09004KT 10SM FEW036 BKN170 BKN250 02/M04 A3012 RMK AO2 SLP209 T00221039

KMEM 060154Z 21004KT 10SM FEW250 09/03 A3011 RMK AO2 SLP197 T00890033 $

KMIA 060153Z 25005KT 10SM FEW050 23/20 A3003 RMK AO2 SLP168 T02330200 $

KMSP 060153Z 07004KT 9SM OVC038 01/M01 A3010 RMK AO2 SNE49 SLP204 P0000 T00061006

KORD 060151Z 10006KT 10SM SCT035 BKN250 02/M03 A3011 RMK AO2 SLP202 T00171033

KPDX 060153Z 12011KT 10SM FEW070 SCT085 BKN120 OVC140 05/M02 A3011 RMK AO2 RAB32E42 SLP195 P0000 T00501017

KPHL 060154Z 32010G19KT 10SM BKN055 06/M03 A2985 RMK AO2 SLP108 T00611028 $

KPHX 060151Z 33005KT 10SM CLR 19/M11 A3019 RMK AO2 SLP218 T01891106

KPIT 060151Z 31007KT 10SM BKN018 BKN023 OVC037 01/M02 A3002 RMK AO2 SLP183 T00061017 $

KSAN 060151Z 00000KT 10SM FEW200 15/02 A3023 RMK AO2 SLP234 T01500017

KSEA 060153Z 11017KT 10SM FEW180 11/M03 A3006 RMK AO2 SLP186 T01111028

KSFO 060156Z 30003KT 10SM FEW180 11/08 A3026 RMK AO2 SLP248 T01110083

KSLC 060154Z 00000KT 10SM CLR M02/M06 A3041 RMK AO2 SLP328 T10221056

KSTL 060151Z 07004KT 10SM CLR 03/M01 A3010 RMK AO2 SLP200 T00331006

KTPA 060153Z 36006KT 10SM BKN300 14/09 A3009 RMK AO2 SLP187 T01390094 $